sensor_id;sensor_type;location;lat;lon;timestamp;temperature;humidity
22319;DHT22;11327;52.334;9.506;2024-03-07T00:02:55;3.60;99.90
22319;DHT22;11327;52.334;9.506;2024-03-07T00:06:16;3.60;99.90
22319;DHT22;11327;52.334;9.506;2024-03-07T00:09:36;3.60;99.90
22319;DHT22;11327;52.334;9.506;2024-03-07T00:12:57;3.60;99.90
22319;DHT22;11327;52.334;9.506;2024-03-07T00:16:18;3.60;99.90
22319;DHT22;11327;52.334;9.506;2024-03-07T00:19:39;3.50;99.90
22319;DHT22;11327;52.334;9.506;2024-03-07T00:23:00;3.60;99.90
22319;DHT22;11327;52.334;9.506;2024-03-07T00:26:20;3.60;99.90
22319;DHT22;11327;52.334;9.506;2024-03-07T00:29:42;2.60;99.90
22319;DHT22;11327;52.334;9.506;2024-03-07T00:33:03;3.50;99.90
22319;DHT22;11327;52.334;9.506;2024-03-07T00:36:25;3.40;99.90
22319;DHT22;11327;52.334;9.506;2024-03-07T00:39:46;3.30;99.90
22319;DHT22;11327;52.334;9.506;2024-03-07T00:43:06;3.20;99.90
22319;DHT22;11327;52.334;9.506;2024-03-07T00:46:27;3.10;99.90
22319;DHT22;11327;52.334;9.506;2024-03-07T00:49:48;3.00;99.90
22319;DHT22;11327;52.334;9.506;2024-03-07T00:53:09;2.90;99.90
22319;DHT22;11327;52.334;9.506;2024-03-07T00:56:30;2.90;99.90
22319;DHT22;11327;52.334;9.506;2024-03-07T00:59:51;2.80;99.90
22319;DHT22;11327;52.334;9.506;2024-03-07T01:03:11;2.70;99.90
22319;DHT22;11327;52.334;9.506;2024-03-07T01:06:35;2.70;99.90
22319;DHT22;11327;52.334;9.506;2024-03-07T01:10:00;2.60;99.90
22319;DHT22;11327;52.334;9.506;2024-03-07T01:13:23;2.60;99.90
22319;DHT22;11327;52.334;9.506;2024-03-07T01:16:44;2.50;99.90
22319;DHT22;11327;52.334;9.506;2024-03-07T01:20:06;2.50;99.90
22319;DHT22;11327;52.334;9.506;2024-03-07T01:23:27;2.40;99.90
22319;DHT22;11327;52.334;9.506;2024-03-07T01:26:51;2.40;99.90
22319;DHT22;11327;52.334;9.506;2024-03-07T01:30:12;2.30;99.90
22319;DHT22;11327;52.334;9.506;2024-03-07T01:33:33;2.30;99.90
22319;DHT22;11327;52.334;9.506;2024-03-07T01:36:54;2.30;99.90
22319;DHT22;11327;52.334;9.506;2024-03-07T01:40:15;2.20;99.90
22319;DHT22;11327;52.334;9.506;2024-03-07T01:43:35;2.20;99.90
22319;DHT22;11327;52.334;9.506;2024-03-07T01:46:58;2.20;99.90
22319;DHT22;11327;52.334;9.506;2024-03-07T01:50:21;2.20;99.90
22319;DHT22;11327;52.334;9.506;2024-03-07T01:53:42;2.10;99.90
22319;DHT22;11327;52.334;9.506;2024-03-07T01:57:04;2.10;99.90
22319;DHT22;11327;52.334;9.506;2024-03-07T02:00:25;2.10;99.90
22319;DHT22;11327;52.334;9.506;2024-03-07T02:03:46;2.10;99.90
22319;DHT22;11327;52.334;9.506;2024-03-07T02:07:07;1.90;99.90
22319;DHT22;11327;52.334;9.506;2024-03-07T02:10:29;1.90;99.90
22319;DHT22;11327;52.334;9.506;2024-03-07T02:13:50;1.80;99.90
22319;DHT22;11327;52.334;9.506;2024-03-07T02:17:11;1.80;99.90
22319;DHT22;11327;52.334;9.506;2024-03-07T02:20:32;1.80;99.90
22319;DHT22;11327;52.334;9.506;2024-03-07T02:23:53;1.80;99.90
22319;DHT22;11327;52.334;9.506;2024-03-07T02:27:15;1.70;99.90
22319;DHT22;11327;52.334;9.506;2024-03-07T02:30:35;1.70;99.90
22319;DHT22;11327;52.334;9.506;2024-03-07T02:33:57;1.70;99.90
22319;DHT22;11327;52.334;9.506;2024-03-07T02:37:17;1.60;99.90
22319;DHT22;11327;52.334;9.506;2024-03-07T02:40:38;1.60;99.90
22319;DHT22;11327;52.334;9.506;2024-03-07T02:43:59;1.60;99.90
22319;DHT22;11327;52.334;9.506;2024-03-07T02:47:21;1.50;99.90
22319;DHT22;11327;52.334;9.506;2024-03-07T02:50:44;1.50;99.90
22319;DHT22;11327;52.334;9.506;2024-03-07T02:54:05;1.40;99.90
22319;DHT22;11327;52.334;9.506;2024-03-07T02:57:26;1.40;99.90
22319;DHT22;11327;52.334;9.506;2024-03-07T03:00:46;1.50;99.90
22319;DHT22;11327;52.334;9.506;2024-03-07T03:04:09;1.40;99.90
22319;DHT22;11327;52.334;9.506;2024-03-07T03:07:30;1.40;99.90
22319;DHT22;11327;52.334;9.506;2024-03-07T03:10:50;1.30;99.90
22319;DHT22;11327;52.334;9.506;2024-03-07T03:14:14;1.30;99.90
22319;DHT22;11327;52.334;9.506;2024-03-07T03:17:35;1.20;99.90
22319;DHT22;11327;52.334;9.506;2024-03-07T03:20:56;1.20;99.90
22319;DHT22;11327;52.334;9.506;2024-03-07T03:24:16;1.10;99.90
22319;DHT22;11327;52.334;9.506;2024-03-07T03:27:37;1.10;99.90
22319;DHT22;11327;52.334;9.506;2024-03-07T03:30:58;1.10;99.90
22319;DHT22;11327;52.334;9.506;2024-03-07T03:34:18;1.10;99.90
22319;DHT22;11327;52.334;9.506;2024-03-07T03:37:40;1.10;99.90
22319;DHT22;11327;52.334;9.506;2024-03-07T03:41:02;1.00;99.90
22319;DHT22;11327;52.334;9.506;2024-03-07T03:44:25;1.00;99.90
22319;DHT22;11327;52.334;9.506;2024-03-07T03:47:45;1.10;99.90
22319;DHT22;11327;52.334;9.506;2024-03-07T03:51:07;1.00;99.90
22319;DHT22;11327;52.334;9.506;2024-03-07T03:54:28;1.00;99.90
22319;DHT22;11327;52.334;9.506;2024-03-07T03:57:49;1.00;99.90
22319;DHT22;11327;52.334;9.506;2024-03-07T04:01:10;1.00;99.90
22319;DHT22;11327;52.334;9.506;2024-03-07T04:04:33;0.90;99.90
22319;DHT22;11327;52.334;9.506;2024-03-07T04:07:53;0.90;99.90
22319;DHT22;11327;52.334;9.506;2024-03-07T04:11:15;0.80;99.90
22319;DHT22;11327;52.334;9.506;2024-03-07T04:14:39;0.90;99.90
22319;DHT22;11327;52.334;9.506;2024-03-07T04:18:01;0.80;99.90
22319;DHT22;11327;52.334;9.506;2024-03-07T04:21:22;0.80;99.90
22319;DHT22;11327;52.334;9.506;2024-03-07T04:24:42;0.80;99.90
22319;DHT22;11327;52.334;9.506;2024-03-07T04:28:03;0.80;99.90
22319;DHT22;11327;52.334;9.506;2024-03-07T04:31:25;0.80;99.90
22319;DHT22;11327;52.334;9.506;2024-03-07T04:34:46;0.90;99.90
22319;DHT22;11327;52.334;9.506;2024-03-07T04:38:07;0.90;99.90
22319;DHT22;11327;52.334;9.506;2024-03-07T04:41:30;0.90;99.90
22319;DHT22;11327;52.334;9.506;2024-03-07T04:44:50;1.10;99.90
22319;DHT22;11327;52.334;9.506;2024-03-07T04:48:12;1.10;99.90
22319;DHT22;11327;52.334;9.506;2024-03-07T04:51:33;1.20;99.90
22319;DHT22;11327;52.334;9.506;2024-03-07T04:54:53;1.20;99.90
22319;DHT22;11327;52.334;9.506;2024-03-07T04:58:15;1.20;99.90
22319;DHT22;11327;52.334;9.506;2024-03-07T05:01:36;1.30;99.90
22319;DHT22;11327;52.334;9.506;2024-03-07T05:04:56;1.30;99.90
22319;DHT22;11327;52.334;9.506;2024-03-07T05:08:17;1.40;99.90
22319;DHT22;11327;52.334;9.506;2024-03-07T05:11:38;1.40;99.90
22319;DHT22;11327;52.334;9.506;2024-03-07T05:14:59;1.50;99.90
22319;DHT22;11327;52.334;9.506;2024-03-07T05:18:20;1.50;99.90
22319;DHT22;11327;52.334;9.506;2024-03-07T05:21:40;-0.80;99.90
22319;DHT22;11327;52.334;9.506;2024-03-07T05:25:01;1.60;99.90
22319;DHT22;11327;52.334;9.506;2024-03-07T05:28:22;1.80;99.90
22319;DHT22;11327;52.334;9.506;2024-03-07T05:31:43;1.70;99.90
22319;DHT22;11327;52.334;9.506;2024-03-07T05:35:10;1.80;99.90
22319;DHT22;11327;52.334;9.506;2024-03-07T05:38:31;1.80;99.90
22319;DHT22;11327;52.334;9.506;2024-03-07T05:41:52;1.80;99.90
22319;DHT22;11327;52.334;9.506;2024-03-07T05:45:13;1.90;99.90
22319;DHT22;11327;52.334;9.506;2024-03-07T05:48:35;1.90;99.90
22319;DHT22;11327;52.334;9.506;2024-03-07T05:51:56;1.90;99.90
22319;DHT22;11327;52.334;9.506;2024-03-07T05:55:18;2.00;99.90
22319;DHT22;11327;52.334;9.506;2024-03-07T05:58:39;2.00;99.90
22319;DHT22;11327;52.334;9.506;2024-03-07T06:02:00;2.00;99.90
22319;DHT22;11327;52.334;9.506;2024-03-07T06:05:21;2.10;99.90
22319;DHT22;11327;52.334;9.506;2024-03-07T06:08:42;2.10;99.90
22319;DHT22;11327;52.334;9.506;2024-03-07T06:12:04;2.20;99.90
22319;DHT22;11327;52.334;9.506;2024-03-07T06:15:26;2.20;99.90
22319;DHT22;11327;52.334;9.506;2024-03-07T06:18:48;2.20;99.90
22319;DHT22;11327;52.334;9.506;2024-03-07T06:22:08;2.20;99.90
22319;DHT22;11327;52.334;9.506;2024-03-07T06:25:31;2.20;99.90
22319;DHT22;11327;52.334;9.506;2024-03-07T06:28:57;2.20;99.90
22319;DHT22;11327;52.334;9.506;2024-03-07T06:32:17;2.00;99.90
22319;DHT22;11327;52.334;9.506;2024-03-07T06:35:38;2.20;99.90
22319;DHT22;11327;52.334;9.506;2024-03-07T06:39:00;2.30;99.90
22319;DHT22;11327;52.334;9.506;2024-03-07T06:42:21;2.10;99.90
22319;DHT22;11327;52.334;9.506;2024-03-07T06:45:42;2.20;99.90
22319;DHT22;11327;52.334;9.506;2024-03-07T06:49:03;2.20;99.90
22319;DHT22;11327;52.334;9.506;2024-03-07T06:52:25;2.30;99.90
22319;DHT22;11327;52.334;9.506;2024-03-07T06:55:46;2.20;99.90
22319;DHT22;11327;52.334;9.506;2024-03-07T06:59:07;2.70;99.90
22319;DHT22;11327;52.334;9.506;2024-03-07T07:02:27;2.30;99.90
22319;DHT22;11327;52.334;9.506;2024-03-07T07:05:48;2.30;99.90
22319;DHT22;11327;52.334;9.506;2024-03-07T07:09:09;2.30;99.90
22319;DHT22;11327;52.334;9.506;2024-03-07T07:12:29;2.30;99.90
22319;DHT22;11327;52.334;9.506;2024-03-07T07:15:51;2.40;99.90
22319;DHT22;11327;52.334;9.506;2024-03-07T07:19:11;2.50;99.90
22319;DHT22;11327;52.334;9.506;2024-03-07T07:22:33;2.40;99.90
22319;DHT22;11327;52.334;9.506;2024-03-07T07:25:54;2.50;99.90
22319;DHT22;11327;52.334;9.506;2024-03-07T07:29:14;2.50;99.90
22319;DHT22;11327;52.334;9.506;2024-03-07T07:32:35;2.50;99.90
22319;DHT22;11327;52.334;9.506;2024-03-07T07:35:56;2.50;99.90
22319;DHT22;11327;52.334;9.506;2024-03-07T07:39:17;2.50;99.90
22319;DHT22;11327;52.334;9.506;2024-03-07T07:42:39;2.60;99.90
22319;DHT22;11327;52.334;9.506;2024-03-07T07:46:00;2.60;99.90
22319;DHT22;11327;52.334;9.506;2024-03-07T07:49:21;2.70;99.90
22319;DHT22;11327;52.334;9.506;2024-03-07T07:52:43;2.70;99.90
22319;DHT22;11327;52.334;9.506;2024-03-07T07:56:04;2.70;99.90
22319;DHT22;11327;52.334;9.506;2024-03-07T07:59:25;4.90;99.90
22319;DHT22;11327;52.334;9.506;2024-03-07T08:02:46;2.80;99.90
22319;DHT22;11327;52.334;9.506;2024-03-07T08:06:06;2.80;99.90
22319;DHT22;11327;52.334;9.506;2024-03-07T08:09:27;2.80;99.90
22319;DHT22;11327;52.334;9.506;2024-03-07T08:12:54;2.80;99.90
22319;DHT22;11327;52.334;9.506;2024-03-07T08:16:15;2.80;99.90
22319;DHT22;11327;52.334;9.506;2024-03-07T08:19:36;2.90;99.90
22319;DHT22;11327;52.334;9.506;2024-03-07T08:22:58;2.90;99.90
22319;DHT22;11327;52.334;9.506;2024-03-07T08:26:19;2.90;99.90
22319;DHT22;11327;52.334;9.506;2024-03-07T08:29:40;3.00;99.90
22319;DHT22;11327;52.334;9.506;2024-03-07T08:33:01;3.00;99.90
22319;DHT22;11327;52.334;9.506;2024-03-07T08:36:25;3.00;99.90
22319;DHT22;11327;52.334;9.506;2024-03-07T08:39:46;3.00;99.90
22319;DHT22;11327;52.334;9.506;2024-03-07T08:43:07;3.10;99.90
22319;DHT22;11327;52.334;9.506;2024-03-07T08:46:27;3.10;99.90
22319;DHT22;11327;52.334;9.506;2024-03-07T08:49:48;3.10;99.90
22319;DHT22;11327;52.334;9.506;2024-03-07T08:53:09;3.20;99.90
22319;DHT22;11327;52.334;9.506;2024-03-07T08:56:29;3.20;99.90
22319;DHT22;11327;52.334;9.506;2024-03-07T08:59:50;3.20;99.90
22319;DHT22;11327;52.334;9.506;2024-03-07T09:03:11;3.20;99.90
22319;DHT22;11327;52.334;9.506;2024-03-07T09:06:31;3.30;99.90
22319;DHT22;11327;52.334;9.506;2024-03-07T09:09:52;3.30;99.90
22319;DHT22;11327;52.334;9.506;2024-03-07T09:13:13;3.40;99.90
22319;DHT22;11327;52.334;9.506;2024-03-07T09:16:34;3.40;99.90
22319;DHT22;11327;52.334;9.506;2024-03-07T09:19:55;3.40;99.90
22319;DHT22;11327;52.334;9.506;2024-03-07T09:23:16;3.40;99.90
22319;DHT22;11327;52.334;9.506;2024-03-07T09:26:36;3.40;99.90
22319;DHT22;11327;52.334;9.506;2024-03-07T09:29:57;3.50;99.90
22319;DHT22;11327;52.334;9.506;2024-03-07T09:33:18;3.60;99.90
22319;DHT22;11327;52.334;9.506;2024-03-07T09:36:40;3.60;99.90
22319;DHT22;11327;52.334;9.506;2024-03-07T09:40:02;3.60;99.90
22319;DHT22;11327;52.334;9.506;2024-03-07T09:43:26;3.70;99.90
22319;DHT22;11327;52.334;9.506;2024-03-07T09:46:55;3.70;99.90
22319;DHT22;11327;52.334;9.506;2024-03-07T09:50:17;3.80;99.90
22319;DHT22;11327;52.334;9.506;2024-03-07T09:53:40;3.80;99.90
22319;DHT22;11327;52.334;9.506;2024-03-07T09:57:02;3.90;99.90
22319;DHT22;11327;52.334;9.506;2024-03-07T10:00:24;3.90;99.90
22319;DHT22;11327;52.334;9.506;2024-03-07T10:03:50;4.00;99.90
22319;DHT22;11327;52.334;9.506;2024-03-07T10:07:15;4.00;99.90
22319;DHT22;11327;52.334;9.506;2024-03-07T10:10:37;4.10;99.90
22319;DHT22;11327;52.334;9.506;2024-03-07T10:13:57;6.40;99.90
22319;DHT22;11327;52.334;9.506;2024-03-07T10:17:18;4.20;99.90
22319;DHT22;11327;52.334;9.506;2024-03-07T10:20:39;4.20;99.90
22319;DHT22;11327;52.334;9.506;2024-03-07T10:24:07;4.20;99.90
22319;DHT22;11327;52.334;9.506;2024-03-07T10:27:28;4.30;99.90
22319;DHT22;11327;52.334;9.506;2024-03-07T10:30:49;4.30;99.90
22319;DHT22;11327;52.334;9.506;2024-03-07T10:34:10;4.40;99.90
22319;DHT22;11327;52.334;9.506;2024-03-07T10:37:34;4.80;99.90
22319;DHT22;11327;52.334;9.506;2024-03-07T10:40:56;4.40;99.90
22319;DHT22;11327;52.334;9.506;2024-03-07T10:44:25;4.50;99.90
22319;DHT22;11327;52.334;9.506;2024-03-07T10:47:53;4.50;99.90
22319;DHT22;11327;52.334;9.506;2024-03-07T10:51:18;4.70;99.90
22319;DHT22;11327;52.334;9.506;2024-03-07T10:58:26;4.70;99.90
22319;DHT22;11327;52.334;9.506;2024-03-07T11:05:10;4.80;99.90
22319;DHT22;11327;52.334;9.506;2024-03-07T11:08:34;5.20;99.90
22319;DHT22;11327;52.334;9.506;2024-03-07T11:11:56;5.60;99.90
22319;DHT22;11327;52.334;9.506;2024-03-07T11:15:19;5.00;99.90
22319;DHT22;11327;52.334;9.506;2024-03-07T11:18:40;5.10;99.90
22319;DHT22;11327;52.334;9.506;2024-03-07T11:22:01;5.20;99.90
22319;DHT22;11327;52.334;9.506;2024-03-07T11:25:23;5.40;99.90
22319;DHT22;11327;52.334;9.506;2024-03-07T11:28:46;5.50;99.90
22319;DHT22;11327;52.334;9.506;2024-03-07T11:32:09;5.60;99.90
22319;DHT22;11327;52.334;9.506;2024-03-07T11:35:34;5.80;99.90
22319;DHT22;11327;52.334;9.506;2024-03-07T11:38:57;6.10;99.90
22319;DHT22;11327;52.334;9.506;2024-03-07T11:42:27;6.50;99.90
22319;DHT22;11327;52.334;9.506;2024-03-07T11:45:49;6.70;99.90
22319;DHT22;11327;52.334;9.506;2024-03-07T11:49:13;6.80;99.90
22319;DHT22;11327;52.334;9.506;2024-03-07T11:52:35;7.20;99.90
22319;DHT22;11327;52.334;9.506;2024-03-07T11:55:58;6.90;99.90
22319;DHT22;11327;52.334;9.506;2024-03-07T11:59:19;6.90;99.90
22319;DHT22;11327;52.334;9.506;2024-03-07T12:02:40;7.00;99.90
22319;DHT22;11327;52.334;9.506;2024-03-07T12:06:04;7.10;99.90
22319;DHT22;11327;52.334;9.506;2024-03-07T12:09:24;7.10;99.90
22319;DHT22;11327;52.334;9.506;2024-03-07T12:12:46;7.20;99.90
22319;DHT22;11327;52.334;9.506;2024-03-07T12:16:07;7.60;99.90
22319;DHT22;11327;52.334;9.506;2024-03-07T12:19:28;7.50;99.90
22319;DHT22;11327;52.334;9.506;2024-03-07T12:22:49;7.30;99.90
22319;DHT22;11327;52.334;9.506;2024-03-07T12:26:10;7.20;99.90
22319;DHT22;11327;52.334;9.506;2024-03-07T12:29:33;7.40;99.90
22319;DHT22;11327;52.334;9.506;2024-03-07T12:32:54;7.10;99.90
22319;DHT22;11327;52.334;9.506;2024-03-07T12:36:15;7.10;99.90
22319;DHT22;11327;52.334;9.506;2024-03-07T12:39:37;7.20;99.90
22319;DHT22;11327;52.334;9.506;2024-03-07T12:42:59;7.20;99.90
22319;DHT22;11327;52.334;9.506;2024-03-07T12:46:20;7.10;99.90
22319;DHT22;11327;52.334;9.506;2024-03-07T12:49:46;7.20;99.90
22319;DHT22;11327;52.334;9.506;2024-03-07T12:53:07;7.00;99.90
22319;DHT22;11327;52.334;9.506;2024-03-07T12:56:29;7.00;99.90
22319;DHT22;11327;52.334;9.506;2024-03-07T12:59:52;7.80;99.90
22319;DHT22;11327;52.334;9.506;2024-03-07T13:03:13;7.60;99.90
22319;DHT22;11327;52.334;9.506;2024-03-07T13:06:35;7.30;99.90
22319;DHT22;11327;52.334;9.506;2024-03-07T13:09:55;7.30;99.90
22319;DHT22;11327;52.334;9.506;2024-03-07T13:13:16;7.30;99.90
22319;DHT22;11327;52.334;9.506;2024-03-07T13:16:37;7.30;99.90
22319;DHT22;11327;52.334;9.506;2024-03-07T13:19:58;7.50;99.90
22319;DHT22;11327;52.334;9.506;2024-03-07T13:23:20;7.70;99.90
22319;DHT22;11327;52.334;9.506;2024-03-07T13:26:42;7.90;99.90
22319;DHT22;11327;52.334;9.506;2024-03-07T13:30:04;7.80;99.90
22319;DHT22;11327;52.334;9.506;2024-03-07T13:33:26;7.60;99.90
22319;DHT22;11327;52.334;9.506;2024-03-07T13:36:48;7.60;99.90
22319;DHT22;11327;52.334;9.506;2024-03-07T13:40:09;7.50;99.90
22319;DHT22;11327;52.334;9.506;2024-03-07T13:43:32;7.40;99.90
22319;DHT22;11327;52.334;9.506;2024-03-07T13:46:54;7.30;99.90
22319;DHT22;11327;52.334;9.506;2024-03-07T13:50:16;7.40;99.90
22319;DHT22;11327;52.334;9.506;2024-03-07T13:53:39;7.30;99.90
22319;DHT22;11327;52.334;9.506;2024-03-07T14:19:27;7.60;99.90
22319;DHT22;11327;52.334;9.506;2024-03-07T14:23:10;8.00;99.90
22319;DHT22;11327;52.334;9.506;2024-03-07T14:34:12;7.90;99.90
22319;DHT22;11327;52.334;9.506;2024-03-07T14:37:55;7.80;99.90
22319;DHT22;11327;52.334;9.506;2024-03-07T14:41:13;7.60;99.90
22319;DHT22;11327;52.334;9.506;2024-03-07T14:44:37;7.60;99.90
22319;DHT22;11327;52.334;9.506;2024-03-07T14:48:00;7.50;99.90
22319;DHT22;11327;52.334;9.506;2024-03-07T14:51:21;7.50;99.90
22319;DHT22;11327;52.334;9.506;2024-03-07T14:54:43;7.50;99.90
22319;DHT22;11327;52.334;9.506;2024-03-07T14:58:04;7.60;99.90
22319;DHT22;11327;52.334;9.506;2024-03-07T15:01:26;7.80;99.90
22319;DHT22;11327;52.334;9.506;2024-03-07T15:04:47;8.00;99.90
22319;DHT22;11327;52.334;9.506;2024-03-07T15:08:08;8.00;99.90
22319;DHT22;11327;52.334;9.506;2024-03-07T15:11:34;8.00;99.90
22319;DHT22;11327;52.334;9.506;2024-03-07T15:14:56;7.90;99.90
22319;DHT22;11327;52.334;9.506;2024-03-07T15:18:16;7.90;99.90
22319;DHT22;11327;52.334;9.506;2024-03-07T15:21:37;7.90;99.90
22319;DHT22;11327;52.334;9.506;2024-03-07T15:24:58;8.00;99.90
22319;DHT22;11327;52.334;9.506;2024-03-07T15:28:21;8.10;99.90
22319;DHT22;11327;52.334;9.506;2024-03-07T15:31:42;8.30;99.90
22319;DHT22;11327;52.334;9.506;2024-03-07T15:35:03;8.30;99.90
22319;DHT22;11327;52.334;9.506;2024-03-07T15:38:24;8.20;99.90
22319;DHT22;11327;52.334;9.506;2024-03-07T15:41:46;8.00;99.90
22319;DHT22;11327;52.334;9.506;2024-03-07T15:45:08;8.10;99.90
22319;DHT22;11327;52.334;9.506;2024-03-07T15:48:31;8.10;99.90
22319;DHT22;11327;52.334;9.506;2024-03-07T15:51:51;7.60;99.90
22319;DHT22;11327;52.334;9.506;2024-03-07T15:55:13;7.50;99.90
22319;DHT22;11327;52.334;9.506;2024-03-07T15:58:36;7.80;99.90
22319;DHT22;11327;52.334;9.506;2024-03-07T16:01:58;8.10;99.90
22319;DHT22;11327;52.334;9.506;2024-03-07T16:05:19;7.60;99.90
22319;DHT22;11327;52.334;9.506;2024-03-07T16:08:40;7.60;99.90
22319;DHT22;11327;52.334;9.506;2024-03-07T16:12:00;7.60;99.90
22319;DHT22;11327;52.334;9.506;2024-03-07T16:15:22;7.50;99.90
22319;DHT22;11327;52.334;9.506;2024-03-07T16:18:44;7.70;99.90
22319;DHT22;11327;52.334;9.506;2024-03-07T16:22:04;7.40;99.90
22319;DHT22;11327;52.334;9.506;2024-03-07T16:25:26;7.30;99.90
22319;DHT22;11327;52.334;9.506;2024-03-07T16:28:47;7.10;99.90
22319;DHT22;11327;52.334;9.506;2024-03-07T16:32:08;7.00;99.90
22319;DHT22;11327;52.334;9.506;2024-03-07T16:35:30;7.00;99.90
22319;DHT22;11327;52.334;9.506;2024-03-07T16:38:51;6.90;99.90
22319;DHT22;11327;52.334;9.506;2024-03-07T16:42:12;6.80;99.90
22319;DHT22;11327;52.334;9.506;2024-03-07T16:45:35;6.70;99.90
22319;DHT22;11327;52.334;9.506;2024-03-07T16:48:56;6.70;99.90
22319;DHT22;11327;52.334;9.506;2024-03-07T16:52:17;6.50;99.90
22319;DHT22;11327;52.334;9.506;2024-03-07T16:55:39;6.50;99.90
22319;DHT22;11327;52.334;9.506;2024-03-07T16:59:00;6.40;99.90
22319;DHT22;11327;52.334;9.506;2024-03-07T17:02:20;6.40;99.90
22319;DHT22;11327;52.334;9.506;2024-03-07T17:05:43;6.80;99.90
22319;DHT22;11327;52.334;9.506;2024-03-07T17:09:04;6.20;99.90
22319;DHT22;11327;52.334;9.506;2024-03-07T17:12:25;6.20;99.90
22319;DHT22;11327;52.334;9.506;2024-03-07T17:15:45;6.10;99.90
22319;DHT22;11327;52.334;9.506;2024-03-07T17:19:06;6.00;99.90
22319;DHT22;11327;52.334;9.506;2024-03-07T17:22:34;6.00;99.90
22319;DHT22;11327;52.334;9.506;2024-03-07T17:25:55;5.90;99.90
22319;DHT22;11327;52.334;9.506;2024-03-07T17:29:16;5.90;99.90
22319;DHT22;11327;52.334;9.506;2024-03-07T17:32:37;5.80;99.90
22319;DHT22;11327;52.334;9.506;2024-03-07T17:35:58;5.80;99.90
22319;DHT22;11327;52.334;9.506;2024-03-07T17:39:19;5.70;99.90
22319;DHT22;11327;52.334;9.506;2024-03-07T17:42:49;5.60;99.90
22319;DHT22;11327;52.334;9.506;2024-03-07T17:46:11;5.60;99.90
22319;DHT22;11327;52.334;9.506;2024-03-07T17:49:31;5.50;99.90
22319;DHT22;11327;52.334;9.506;2024-03-07T17:52:54;5.40;99.90
22319;DHT22;11327;52.334;9.506;2024-03-07T17:56:20;5.40;99.90
22319;DHT22;11327;52.334;9.506;2024-03-07T17:59:43;5.40;99.90
22319;DHT22;11327;52.334;9.506;2024-03-07T18:03:07;5.30;99.90
22319;DHT22;11327;52.334;9.506;2024-03-07T18:06:30;5.30;99.90
22319;DHT22;11327;52.334;9.506;2024-03-07T18:09:51;5.20;99.90
22319;DHT22;11327;52.334;9.506;2024-03-07T18:13:14;5.10;99.90
22319;DHT22;11327;52.334;9.506;2024-03-07T18:16:35;5.10;99.90
22319;DHT22;11327;52.334;9.506;2024-03-07T18:19:57;5.00;99.90
22319;DHT22;11327;52.334;9.506;2024-03-07T18:23:19;5.30;99.90
22319;DHT22;11327;52.334;9.506;2024-03-07T18:26:41;5.00;99.90
22319;DHT22;11327;52.334;9.506;2024-03-07T18:30:02;4.90;99.90
22319;DHT22;11327;52.334;9.506;2024-03-07T18:33:32;4.90;99.90
22319;DHT22;11327;52.334;9.506;2024-03-07T18:36:53;4.90;99.90
22319;DHT22;11327;52.334;9.506;2024-03-07T18:40:14;4.80;99.90
22319;DHT22;11327;52.334;9.506;2024-03-07T18:43:35;4.80;99.90
22319;DHT22;11327;52.334;9.506;2024-03-07T18:46:56;4.70;99.90
22319;DHT22;11327;52.334;9.506;2024-03-07T18:50:22;4.70;99.90
22319;DHT22;11327;52.334;9.506;2024-03-07T18:53:43;4.70;99.90
22319;DHT22;11327;52.334;9.506;2024-03-07T18:57:04;4.70;99.90
22319;DHT22;11327;52.334;9.506;2024-03-07T19:00:27;4.70;99.90
22319;DHT22;11327;52.334;9.506;2024-03-07T19:03:52;4.70;99.90
22319;DHT22;11327;52.334;9.506;2024-03-07T19:07:13;4.90;99.90
22319;DHT22;11327;52.334;9.506;2024-03-07T19:10:34;4.50;99.90
22319;DHT22;11327;52.334;9.506;2024-03-07T19:13:55;5.80;99.90
22319;DHT22;11327;52.334;9.506;2024-03-07T19:17:15;4.50;99.90
22319;DHT22;11327;52.334;9.506;2024-03-07T19:20:36;4.40;99.90
22319;DHT22;11327;52.334;9.506;2024-03-07T19:24:00;4.40;99.90
22319;DHT22;11327;52.334;9.506;2024-03-07T19:27:21;4.90;99.90
22319;DHT22;11327;52.334;9.506;2024-03-07T19:30:47;4.30;99.90
22319;DHT22;11327;52.334;9.506;2024-03-07T19:34:08;4.20;99.90
22319;DHT22;11327;52.334;9.506;2024-03-07T19:37:30;4.10;99.90
22319;DHT22;11327;52.334;9.506;2024-03-07T19:40:51;4.10;99.90
22319;DHT22;11327;52.334;9.506;2024-03-07T19:44:12;4.10;99.90
22319;DHT22;11327;52.334;9.506;2024-03-07T19:47:32;4.60;99.90
22319;DHT22;11327;52.334;9.506;2024-03-07T19:50:53;4.70;99.90
22319;DHT22;11327;52.334;9.506;2024-03-07T19:54:16;4.00;99.90
22319;DHT22;11327;52.334;9.506;2024-03-07T19:57:37;4.00;99.90
22319;DHT22;11327;52.334;9.506;2024-03-07T20:00:59;4.00;99.90
22319;DHT22;11327;52.334;9.506;2024-03-07T20:04:22;5.40;99.90
22319;DHT22;11327;52.334;9.506;2024-03-07T20:07:44;4.10;99.90
22319;DHT22;11327;52.334;9.506;2024-03-07T20:11:05;4.80;99.90
22319;DHT22;11327;52.334;9.506;2024-03-07T20:14:27;4.80;99.90
22319;DHT22;11327;52.334;9.506;2024-03-07T20:17:47;4.70;99.90
22319;DHT22;11327;52.334;9.506;2024-03-07T20:21:09;4.10;99.90
22319;DHT22;11327;52.334;9.506;2024-03-07T20:24:30;3.70;99.90
22319;DHT22;11327;52.334;9.506;2024-03-07T20:27:51;3.70;99.90
22319;DHT22;11327;52.334;9.506;2024-03-07T20:31:16;3.70;99.90
22319;DHT22;11327;52.334;9.506;2024-03-07T20:34:37;3.60;99.90
22319;DHT22;11327;52.334;9.506;2024-03-07T20:38:01;3.60;99.90
22319;DHT22;11327;52.334;9.506;2024-03-07T20:41:24;3.50;99.90
22319;DHT22;11327;52.334;9.506;2024-03-07T20:44:46;3.90;99.90
22319;DHT22;11327;52.334;9.506;2024-03-07T20:48:07;3.40;99.90
22319;DHT22;11327;52.334;9.506;2024-03-07T20:51:29;3.30;99.90
22319;DHT22;11327;52.334;9.506;2024-03-07T20:54:52;4.50;99.90
22319;DHT22;11327;52.334;9.506;2024-03-07T20:58:13;3.20;99.90
22319;DHT22;11327;52.334;9.506;2024-03-07T21:01:35;3.20;99.90
22319;DHT22;11327;52.334;9.506;2024-03-07T21:04:58;3.30;99.90
22319;DHT22;11327;52.334;9.506;2024-03-07T21:08:20;3.30;99.90
22319;DHT22;11327;52.334;9.506;2024-03-07T21:11:41;3.20;99.90
22319;DHT22;11327;52.334;9.506;2024-03-07T21:15:01;3.10;99.90
22319;DHT22;11327;52.334;9.506;2024-03-07T21:18:22;3.10;99.90
22319;DHT22;11327;52.334;9.506;2024-03-07T21:21:46;3.00;99.90
22319;DHT22;11327;52.334;9.506;2024-03-07T21:25:08;3.30;99.90
22319;DHT22;11327;52.334;9.506;2024-03-07T21:28:31;2.90;99.90
22319;DHT22;11327;52.334;9.506;2024-03-07T21:31:53;2.90;99.90
22319;DHT22;11327;52.334;9.506;2024-03-07T21:35:14;2.90;99.90
22319;DHT22;11327;52.334;9.506;2024-03-07T21:38:37;2.90;99.90
22319;DHT22;11327;52.334;9.506;2024-03-07T21:41:58;2.80;99.90
22319;DHT22;11327;52.334;9.506;2024-03-07T21:45:19;2.90;99.90
22319;DHT22;11327;52.334;9.506;2024-03-07T21:48:39;2.90;99.90
22319;DHT22;11327;52.334;9.506;2024-03-07T21:52:02;2.80;99.90
22319;DHT22;11327;52.334;9.506;2024-03-07T21:55:23;0.10;99.90
22319;DHT22;11327;52.334;9.506;2024-03-07T21:58:44;3.00;99.90
22319;DHT22;11327;52.334;9.506;2024-03-07T22:02:09;2.80;99.90
22319;DHT22;11327;52.334;9.506;2024-03-07T22:05:31;2.80;99.90
22319;DHT22;11327;52.334;9.506;2024-03-07T22:08:53;2.70;99.90
22319;DHT22;11327;52.334;9.506;2024-03-07T22:12:13;2.70;99.90